Time;durP1;ratioP1;P1;durP2;ratioP2;P2;SDS_P1;SDS_P2;PMS_P1;PMS_P2;Temp;Humidity;BMP_temperature;BMP_pressure;BME280_temperature;BME280_humidity;BME280_pressure;Samples;Min_cycle;Max_cycle;Signal;HPM_P1;HPM_P2
2023/05/26 00:00:35;;;;;;;7.27;6.57;;;;;;;;;;5075854;28;20452;-76
2023/05/26 00:03:03;;;;;;;11.60;7.10;;;;;;;;;;5075711;28;20455;-76
2023/05/26 00:05:30;;;;;;;8.77;6.93;;;;;;;;;;5075415;28;20505;-76
2023/05/26 00:07:58;;;;;;;8.07;7.27;;;;;;;;;;5075312;28;20451;-77
2023/05/26 00:10:25;;;;;;;9.87;8.20;;;;;;;;;;5074445;28;20488;-75
2023/05/26 00:12:52;;;;;;;10.43;7.47;;;;;;;;;;5074571;28;20463;-76
2023/05/26 00:15:20;;;;;;;12.30;7.40;;;;;;;;;;5074410;28;20440;-76
2023/05/26 00:17:50;;;;;;;9.70;7.40;;;;;;;;;;5074399;28;20450;-76
2023/05/26 00:20:17;;;;;;;10.97;7.90;;;;;;;;;;5074642;28;20468;-77
2023/05/26 00:22:45;;;;;;;13.70;6.83;;;;;;;;;;5074747;28;20805;-76
2023/05/26 00:25:13;;;;;;;9.80;7.47;;;;;;;;;;5074691;28;20483;-77
2023/05/26 00:27:40;;;;;;;15.20;7.80;;;;;;;;;;5074403;28;20452;-77
2023/05/26 00:30:09;;;;;;;8.80;7.13;;;;;;;;;;5074809;28;20836;-76
2023/05/26 00:32:36;;;;;;;10.17;7.77;;;;;;;;;;5075640;28;20440;-77
2023/05/26 00:35:03;;;;;;;10.30;6.80;;;;;;;;;;5074649;28;20436;-76
2023/05/26 00:37:30;;;;;;;11.00;8.50;;;;;;;;;;5075178;28;20454;-76
2023/05/26 00:39:57;;;;;;;8.83;7.93;;;;;;;;;;5074261;28;20499;-76
2023/05/26 00:42:26;;;;;;;9.33;6.90;;;;;;;;;;5074544;28;20467;-76
2023/05/26 00:44:53;;;;;;;10.67;6.23;;;;;;;;;;5074390;28;20451;-76
2023/05/26 00:47:20;;;;;;;7.37;6.57;;;;;;;;;;5074244;28;20447;-76
2023/05/26 00:49:47;;;;;;;11.07;7.00;;;;;;;;;;5073902;28;20977;-75
2023/05/26 00:52:15;;;;;;;8.33;6.30;;;;;;;;;;5074523;28;20467;-76
2023/05/26 00:54:43;;;;;;;8.73;6.80;;;;;;;;;;5074868;28;20810;-76
2023/05/26 00:57:11;;;;;;;8.50;7.40;;;;;;;;;;5074148;28;20455;-76
2023/05/26 00:59:39;;;;;;;8.57;7.67;;;;;;;;;;5073953;28;20518;-76
2023/05/26 01:02:06;;;;;;;11.00;6.80;;;;;;;;;;5074316;28;20463;-76
2023/05/26 01:04:34;;;;;;;11.33;7.30;;;;;;;;;;5074476;28;20443;-76
2023/05/26 01:07:01;;;;;;;9.60;7.40;;;;;;;;;;5074313;28;20513;-76
2023/05/26 01:09:28;;;;;;;9.60;7.30;;;;;;;;;;5073933;28;20484;-76
2023/05/26 01:11:58;;;;;;;10.13;7.40;;;;;;;;;;5074104;28;20495;-76
2023/05/26 01:14:28;;;;;;;10.63;7.70;;;;;;;;;;5074666;28;20444;-76
2023/05/26 01:16:58;;;;;;;7.80;6.60;;;;;;;;;;5074437;28;20432;-76
2023/05/26 01:19:40;;;;;;;8.67;7.60;;;;;;;;;;5073864;28;20475;-76
2023/05/26 01:22:14;;;;;;;13.53;7.47;;;;;;;;;;5074150;28;20530;-76
2023/05/26 01:24:41;;;;;;;8.80;7.07;;;;;;;;;;5073869;28;20440;-76
2023/05/26 01:27:13;;;;;;;12.33;8.33;;;;;;;;;;5073374;28;20452;-76
2023/05/26 01:29:42;;;;;;;9.53;7.43;;;;;;;;;;5073541;28;20550;-76
2023/05/26 01:32:09;;;;;;;13.30;7.90;;;;;;;;;;5073547;28;20487;-76
2023/05/26 01:34:37;;;;;;;8.37;7.20;;;;;;;;;;5073738;28;20970;-76
2023/05/26 01:37:05;;;;;;;9.87;7.30;;;;;;;;;;5073814;28;20463;-77
2023/05/26 01:39:32;;;;;;;12.67;7.43;;;;;;;;;;5073484;28;20574;-76
2023/05/26 01:42:05;;;;;;;9.00;7.27;;;;;;;;;;5073522;28;20451;-76
2023/05/26 01:44:34;;;;;;;11.30;7.30;;;;;;;;;;5073828;28;20443;-76
2023/05/26 01:47:03;;;;;;;10.73;7.70;;;;;;;;;;5073831;28;20456;-76
2023/05/26 01:49:30;;;;;;;9.90;7.10;;;;;;;;;;5073778;28;20472;-76
2023/05/26 01:51:59;;;;;;;16.97;8.43;;;;;;;;;;5074660;28;20483;-76
2023/05/26 01:54:27;;;;;;;8.93;7.40;;;;;;;;;;5077497;28;20455;-76
2023/05/26 01:56:55;;;;;;;11.13;7.23;;;;;;;;;;5077887;28;20529;-76
2023/05/26 01:59:22;;;;;;;14.03;8.50;;;;;;;;;;5077811;28;20486;-76
2023/05/26 02:01:49;;;;;;;11.93;8.30;;;;;;;;;;5077688;28;20452;-76
2023/05/26 02:04:18;;;;;;;19.10;8.60;;;;;;;;;;5077852;28;20546;-76
2023/05/26 02:06:46;;;;;;;11.10;7.87;;;;;;;;;;5077956;28;20458;-76
2023/05/26 02:09:13;;;;;;;11.27;8.37;;;;;;;;;;5077526;28;20966;-75
2023/05/26 02:11:40;;;;;;;8.80;7.40;;;;;;;;;;5077384;28;20495;-76
2023/05/26 02:14:07;;;;;;;9.33;7.60;;;;;;;;;;5077173;28;20451;-76
2023/05/26 02:16:35;;;;;;;9.53;6.83;;;;;;;;;;5077363;28;20459;-76
2023/05/26 02:19:03;;;;;;;9.67;7.37;;;;;;;;;;5077426;28;20889;-76
2023/05/26 02:21:32;;;;;;;12.80;8.00;;;;;;;;;;5076917;28;20467;-76
2023/05/26 02:23:59;;;;;;;12.43;8.83;;;;;;;;;;5076729;28;20467;-76
2023/05/26 02:26:26;;;;;;;9.43;8.43;;;;;;;;;;5077485;28;20459;-76
2023/05/26 02:28:55;;;;;;;10.20;7.57;;;;;;;;;;5077083;28;21019;-76
2023/05/26 02:31:22;;;;;;;10.53;8.37;;;;;;;;;;5076833;28;20490;-76
2023/05/26 02:33:50;;;;;;;11.67;7.10;;;;;;;;;;5077263;28;20440;-76
2023/05/26 02:36:17;;;;;;;10.27;7.70;;;;;;;;;;5076577;28;20514;-75
2023/05/26 02:38:46;;;;;;;11.10;6.90;;;;;;;;;;5076203;28;20481;-75
2023/05/26 02:41:13;;;;;;;14.60;7.63;;;;;;;;;;5076597;28;20447;-75
2023/05/26 02:43:40;;;;;;;10.80;7.60;;;;;;;;;;5076279;28;20820;-75
2023/05/26 02:46:07;;;;;;;11.40;7.73;;;;;;;;;;5076135;28;20459;-75
2023/05/26 02:48:35;;;;;;;9.77;7.60;;;;;;;;;;5076345;28;20468;-75
2023/05/26 02:51:02;;;;;;;10.20;8.53;;;;;;;;;;5076082;28;20475;-75
2023/05/26 02:53:29;;;;;;;13.10;8.10;;;;;;;;;;5076115;28;20459;-74
2023/05/26 02:55:58;;;;;;;12.77;9.50;;;;;;;;;;5076068;28;20463;-75
2023/05/26 02:58:27;;;;;;;10.60;8.70;;;;;;;;;;5075617;28;20482;-75
2023/05/26 03:00:54;;;;;;;11.13;7.57;;;;;;;;;;5075981;28;20456;-75
2023/05/26 03:03:21;;;;;;;14.23;8.40;;;;;;;;;;5074823;28;20526;-76
2023/05/26 03:05:48;;;;;;;10.60;8.23;;;;;;;;;;5075815;28;20961;-75
2023/05/26 03:08:15;;;;;;;17.03;8.40;;;;;;;;;;5075746;28;20526;-75
2023/05/26 03:10:43;;;;;;;10.40;7.87;;;;;;;;;;5075709;28;20451;-75
2023/05/26 03:13:12;;;;;;;12.57;8.07;;;;;;;;;;5075418;28;20502;-75
2023/05/26 03:15:42;;;;;;;11.40;8.50;;;;;;;;;;5075944;28;20498;-75
2023/05/26 03:18:09;;;;;;;11.03;9.20;;;;;;;;;;5075563;28;20933;-74
2023/05/26 03:20:36;;;;;;;11.83;6.97;;;;;;;;;;5075575;28;20463;-75
2023/05/26 03:23:03;;;;;;;9.00;8.10;;;;;;;;;;5075240;28;20459;-74
2023/05/26 03:25:31;;;;;;;11.23;9.10;;;;;;;;;;5075604;28;20918;-74
2023/05/26 03:27:58;;;;;;;14.07;7.23;;;;;;;;;;5075075;28;20506;-74
2023/05/26 03:30:26;;;;;;;13.20;8.20;;;;;;;;;;5075289;28;20988;-74
2023/05/26 03:32:53;;;;;;;12.00;7.73;;;;;;;;;;5075340;28;20476;-74
2023/05/26 03:35:20;;;;;;;13.77;8.47;;;;;;;;;;5075059;28;20443;-74
2023/05/26 03:37:49;;;;;;;10.20;7.77;;;;;;;;;;5074940;28;20455;-74
2023/05/26 03:40:16;;;;;;;11.67;8.23;;;;;;;;;;5075040;28;20482;-75
2023/05/26 03:42:43;;;;;;;12.17;9.20;;;;;;;;;;5074803;28;20444;-75
2023/05/26 03:45:12;;;;;;;12.00;7.63;;;;;;;;;;5075153;28;20808;-75
2023/05/26 03:47:41;;;;;;;13.20;9.47;;;;;;;;;;5074799;28;20495;-75
2023/05/26 03:50:08;;;;;;;10.63;9.23;;;;;;;;;;5074940;28;20471;-74
2023/05/26 03:52:35;;;;;;;15.30;9.47;;;;;;;;;;5074490;28;20488;-74
2023/05/26 03:55:03;;;;;;;14.83;8.70;;;;;;;;;;5074928;28;20980;-75
2023/05/26 03:57:30;;;;;;;12.17;7.27;;;;;;;;;;5074508;28;20463;-75
2023/05/26 03:59:57;;;;;;;10.37;7.90;;;;;;;;;;5074774;28;20471;-74
2023/05/26 04:02:24;;;;;;;11.07;8.50;;;;;;;;;;5075027;28;20455;-74
2023/05/26 04:04:53;;;;;;;13.50;8.37;;;;;;;;;;5074729;28;20450;-75
2023/05/26 04:07:20;;;;;;;8.87;7.97;;;;;;;;;;5074665;28;20937;-75
2023/05/26 04:09:47;;;;;;;12.03;8.23;;;;;;;;;;5074446;28;20499;-75
2023/05/26 04:12:14;;;;;;;12.80;8.77;;;;;;;;;;5074476;28;20483;-75
2023/05/26 04:14:41;;;;;;;10.73;6.87;;;;;;;;;;5074153;28;20460;-75
2023/05/26 04:17:08;;;;;;;15.50;8.13;;;;;;;;;;5074154;28;20462;-75
2023/05/26 04:19:35;;;;;;;13.03;8.20;;;;;;;;;;5074091;28;20467;-75
2023/05/26 04:22:04;;;;;;;12.27;9.13;;;;;;;;;;5074397;28;20952;-74
2023/05/26 04:24:31;;;;;;;13.00;8.63;;;;;;;;;;5073972;28;20463;-76
2023/05/26 04:26:58;;;;;;;16.83;9.80;;;;;;;;;;5073850;28;20960;-76
2023/05/26 04:29:25;;;;;;;14.60;8.67;;;;;;;;;;5073463;28;20985;-77
2023/05/26 04:31:52;;;;;;;11.00;7.97;;;;;;;;;;5073365;28;20483;-76
2023/05/26 04:34:21;;;;;;;11.67;8.20;;;;;;;;;;5073694;28;20451;-76
2023/05/26 04:36:48;;;;;;;13.80;9.00;;;;;;;;;;5073901;28;20494;-77
2023/05/26 04:39:16;;;;;;;12.90;8.53;;;;;;;;;;5073301;28;20483;-77
2023/05/26 04:41:44;;;;;;;15.63;7.50;;;;;;;;;;5073721;28;20967;-76
2023/05/26 04:44:12;;;;;;;10.77;7.27;;;;;;;;;;5073827;28;20463;-77
2023/05/26 04:46:39;;;;;;;11.97;6.83;;;;;;;;;;5073674;28;20456;-77
2023/05/26 04:49:07;;;;;;;10.30;8.03;;;;;;;;;;5073289;28;20467;-77
2023/05/26 04:51:35;;;;;;;10.93;7.30;;;;;;;;;;5073401;28;20480;-77
2023/05/26 04:54:02;;;;;;;6.93;6.20;;;;;;;;;;5073239;28;20815;-77
2023/05/26 04:56:30;;;;;;;8.40;6.00;;;;;;;;;;5058792;28;20477;-77
2023/05/26 04:58:58;;;;;;;9.03;7.20;;;;;;;;;;5056824;28;20468;-77
2023/05/26 05:01:26;;;;;;;9.50;7.17;;;;;;;;;;5063652;28;20981;-77
2023/05/26 05:03:53;;;;;;;8.53;6.63;;;;;;;;;;5072961;28;20517;-77
2023/05/26 05:06:20;;;;;;;9.20;6.57;;;;;;;;;;5072880;28;20462;-77
2023/05/26 05:08:47;;;;;;;12.77;7.87;;;;;;;;;;5072737;28;20528;-77
2023/05/26 05:11:14;;;;;;;7.13;6.43;;;;;;;;;;5072816;28;20458;-77
2023/05/26 05:13:43;;;;;;;11.40;6.03;;;;;;;;;;5072999;28;20459;-77
2023/05/26 05:16:10;;;;;;;14.90;6.67;;;;;;;;;;5072890;28;20456;-77
2023/05/26 05:18:37;;;;;;;7.70;5.73;;;;;;;;;;5072683;28;20494;-77
2023/05/26 05:21:05;;;;;;;11.70;7.07;;;;;;;;;;5072867;28;20463;-77
2023/05/26 05:23:34;;;;;;;8.93;6.33;;;;;;;;;;5072839;28;20451;-77
2023/05/26 05:26:01;;;;;;;6.83;6.10;;;;;;;;;;5072764;28;20448;-77
2023/05/26 05:28:29;;;;;;;8.73;6.33;;;;;;;;;;5072269;28;20492;-77
2023/05/26 05:30:58;;;;;;;9.50;6.90;;;;;;;;;;5072601;28;20879;-77
2023/05/26 05:33:25;;;;;;;7.57;6.77;;;;;;;;;;5072622;28;20495;-77
2023/05/26 05:35:52;;;;;;;6.13;5.50;;;;;;;;;;5072871;28;20973;-77
2023/05/26 05:38:19;;;;;;;9.40;7.70;;;;;;;;;;5072805;28;20474;-78
2023/05/26 05:40:46;;;;;;;7.63;5.93;;;;;;;;;;5072823;28;20467;-77
2023/05/26 05:43:13;;;;;;;8.87;6.33;;;;;;;;;;5072739;28;20455;-77
2023/05/26 05:45:40;;;;;;;8.20;6.50;;;;;;;;;;5073153;28;20466;-77
2023/05/26 05:48:09;;;;;;;11.93;6.60;;;;;;;;;;5071905;28;20970;-77
2023/05/26 05:50:36;;;;;;;11.93;6.67;;;;;;;;;;5072510;28;20459;-77
2023/05/26 05:53:03;;;;;;;9.83;7.57;;;;;;;;;;5072228;28;20483;-77
2023/05/26 05:55:31;;;;;;;8.17;6.50;;;;;;;;;;5072741;28;20451;-77
2023/05/26 05:57:58;;;;;;;9.43;6.03;;;;;;;;;;5072716;28;20456;-77
2023/05/26 06:00:25;;;;;;;15.33;7.10;;;;;;;;;;5072371;28;20467;-77
2023/05/26 06:02:52;;;;;;;10.60;6.20;;;;;;;;;;5072634;28;20553;-76
2023/05/26 06:05:21;;;;;;;11.10;6.57;;;;;;;;;;5072812;28;20455;-76
2023/05/26 06:07:48;;;;;;;5.70;5.20;;;;;;;;;;5072647;28;20451;-77
2023/05/26 06:10:15;;;;;;;7.43;6.73;;;;;;;;;;5072432;28;20575;-77
2023/05/26 06:12:42;;;;;;;7.20;5.80;;;;;;;;;;5072612;28;20490;-77
2023/05/26 06:15:10;;;;;;;7.00;6.17;;;;;;;;;;5072580;28;20968;-77
2023/05/26 06:17:37;;;;;;;9.20;6.37;;;;;;;;;;5072534;28;20456;-77
2023/05/26 06:20:05;;;;;;;8.03;5.87;;;;;;;;;;5072173;28;20854;-77
2023/05/26 06:22:36;;;;;;;8.40;5.47;;;;;;;;;;5072706;28;20440;-77
2023/05/26 06:25:03;;;;;;;8.77;6.00;;;;;;;;;;5072220;28;20468;-77
2023/05/26 06:27:30;;;;;;;7.03;5.57;;;;;;;;;;5072404;28;20509;-77
2023/05/26 06:29:57;;;;;;;7.03;6.37;;;;;;;;;;5071571;28;20494;-77
2023/05/26 06:32:24;;;;;;;8.67;6.20;;;;;;;;;;5072393;28;20483;-77
2023/05/26 06:34:51;;;;;;;8.63;6.73;;;;;;;;;;5072314;28;20977;-77
2023/05/26 06:37:19;;;;;;;7.00;5.90;;;;;;;;;;5072218;28;20482;-77
2023/05/26 06:39:47;;;;;;;7.10;6.40;;;;;;;;;;5074841;28;20850;-78
2023/05/26 06:42:14;;;;;;;9.23;6.40;;;;;;;;;;5075840;28;20455;-78
2023/05/26 06:44:41;;;;;;;8.20;5.90;;;;;;;;;;5075836;28;20455;-78
2023/05/26 06:47:09;;;;;;;11.77;6.37;;;;;;;;;;5075639;28;20981;-78
2023/05/26 06:49:37;;;;;;;7.47;5.40;;;;;;;;;;5075593;28;20854;-78
2023/05/26 06:52:04;;;;;;;12.03;5.60;;;;;;;;;;5074982;28;20491;-78
2023/05/26 06:54:31;;;;;;;6.30;5.70;;;;;;;;;;5075124;28;20456;-78
2023/05/26 06:57:00;;;;;;;6.80;5.57;;;;;;;;;;5075412;28;20460;-78
2023/05/26 06:59:27;;;;;;;9.17;6.50;;;;;;;;;;5074187;28;20471;-78
2023/05/26 07:01:55;;;;;;;9.50;5.00;;;;;;;;;;5075618;28;20858;-78
2023/05/26 07:04:22;;;;;;;9.57;5.77;;;;;;;;;;5075525;28;20451;-78
2023/05/26 07:06:49;;;;;;;9.33;8.33;;;;;;;;;;5075713;28;20451;-79
2023/05/26 07:09:16;;;;;;;11.37;6.00;;;;;;;;;;5075254;28;20480;-78
2023/05/26 07:11:43;;;;;;;7.37;5.90;;;;;;;;;;5075695;28;20473;-78
2023/05/26 07:14:12;;;;;;;7.63;5.70;;;;;;;;;;5075545;28;20491;-78
2023/05/26 07:16:39;;;;;;;6.53;5.83;;;;;;;;;;5075643;28;20826;-78
2023/05/26 07:19:06;;;;;;;6.73;6.03;;;;;;;;;;5075250;28;21068;-78
2023/05/26 07:21:33;;;;;;;9.20;4.80;;;;;;;;;;5075603;28;20451;-78
2023/05/26 07:24:00;;;;;;;8.40;5.13;;;;;;;;;;5075414;28;20447;-78
2023/05/26 07:26:27;;;;;;;8.50;5.50;;;;;;;;;;5075626;28;20451;-78
2023/05/26 07:28:55;;;;;;;12.70;6.33;;;;;;;;;;5075213;28;20480;-78
2023/05/26 07:31:23;;;;;;;8.87;6.20;;;;;;;;;;5074631;28;20961;-78
2023/05/26 07:33:50;;;;;;;7.50;5.80;;;;;;;;;;5075003;28;21019;-78
2023/05/26 07:36:18;;;;;;;7.07;5.67;;;;;;;;;;5075040;28;20491;-78
2023/05/26 07:38:45;;;;;;;6.70;5.40;;;;;;;;;;5075239;28;20475;-78
2023/05/26 07:41:12;;;;;;;7.50;5.63;;;;;;;;;;5075108;28;20451;-78
2023/05/26 07:43:39;;;;;;;8.57;5.50;;;;;;;;;;5074763;28;20448;-78
2023/05/26 07:46:06;;;;;;;7.20;5.50;;;;;;;;;;5074857;28;20459;-78
2023/05/26 07:48:34;;;;;;;8.03;6.50;;;;;;;;;;5074606;28;20498;-78
2023/05/26 07:51:02;;;;;;;9.50;5.37;;;;;;;;;;5074350;28;20976;-78
2023/05/26 07:53:30;;;;;;;6.53;5.60;;;;;;;;;;5074971;28;20502;-78
2023/05/26 07:55:57;;;;;;;7.53;6.30;;;;;;;;;;5074892;28;20976;-78
2023/05/26 07:58:24;;;;;;;7.30;5.97;;;;;;;;;;5074710;28;20480;-78
2023/05/26 08:00:51;;;;;;;7.77;6.47;;;;;;;;;;5074597;28;20452;-78
2023/05/26 08:03:18;;;;;;;10.50;6.20;;;;;;;;;;5074404;28;20949;-78
2023/05/26 08:05:46;;;;;;;9.17;6.13;;;;;;;;;;5074776;28;20890;-78
2023/05/26 08:08:14;;;;;;;7.10;5.93;;;;;;;;;;5074634;28;20455;-78
2023/05/26 08:10:41;;;;;;;10.03;8.00;;;;;;;;;;5075022;28;20456;-78
2023/05/26 08:13:09;;;;;;;7.20;6.50;;;;;;;;;;5075442;28;21023;-78
2023/05/26 08:15:36;;;;;;;7.70;6.87;;;;;;;;;;5075404;28;20501;-78
2023/05/26 08:18:03;;;;;;;8.10;6.30;;;;;;;;;;5074997;28;20447;-78
2023/05/26 08:20:30;;;;;;;9.17;5.80;;;;;;;;;;5074819;28;20831;-78
2023/05/26 08:22:59;;;;;;;9.30;6.70;;;;;;;;;;5075148;28;20455;-78
2023/05/26 08:25:26;;;;;;;7.30;5.50;;;;;;;;;;5074635;28;20452;-78
2023/05/26 08:27:53;;;;;;;12.77;5.83;;;;;;;;;;5074568;28;20483;-78
2023/05/26 08:30:21;;;;;;;8.63;6.27;;;;;;;;;;5074079;28;20487;-78
2023/05/26 08:32:48;;;;;;;7.00;6.30;;;;;;;;;;5074851;28;20858;-78
2023/05/26 08:35:15;;;;;;;13.23;6.07;;;;;;;;;;5075289;28;20462;-78
2023/05/26 08:37:42;;;;;;;9.50;5.80;;;;;;;;;;5074501;28;20448;-78
2023/05/26 08:40:11;;;;;;;7.63;6.17;;;;;;;;;;5073529;28;20474;-78
2023/05/26 08:42:43;;;;;;;7.03;6.27;;;;;;;;;;5073769;28;20452;-78
2023/05/26 08:45:10;;;;;;;10.13;6.80;;;;;;;;;;5073588;28;20459;-78
2023/05/26 08:47:39;;;;;;;6.77;5.80;;;;;;;;;;5074134;28;20458;-78
2023/05/26 08:50:07;;;;;;;8.30;6.33;;;;;;;;;;5073519;28;20479;-78
2023/05/26 08:52:34;;;;;;;9.70;6.60;;;;;;;;;;5073774;28;20452;-78
2023/05/26 08:55:01;;;;;;;6.30;5.70;;;;;;;;;;5074297;28;20820;-78
2023/05/26 08:57:31;;;;;;;7.73;5.70;;;;;;;;;;5074392;28;20451;-78
2023/05/26 08:59:58;;;;;;;6.40;5.70;;;;;;;;;;5073276;28;20503;-78
2023/05/26 09:02:25;;;;;;;12.90;7.00;;;;;;;;;;5073369;28;20455;-78
2023/05/26 09:04:52;;;;;;;8.57;6.70;;;;;;;;;;5073645;28;20447;-78
2023/05/26 09:07:19;;;;;;;7.20;6.40;;;;;;;;;;5073293;28;20448;-78
2023/05/26 09:09:47;;;;;;;7.63;6.57;;;;;;;;;;5073210;28;20471;-78
2023/05/26 09:12:14;;;;;;;6.47;5.20;;;;;;;;;;5073248;28;20455;-78
2023/05/26 09:14:43;;;;;;;8.73;7.00;;;;;;;;;;5073626;28;20858;-78
2023/05/26 09:17:13;;;;;;;11.07;6.30;;;;;;;;;;5073488;28;20931;-78
2023/05/26 09:19:40;;;;;;;8.00;6.03;;;;;;;;;;5072920;28;20483;-78
2023/05/26 09:22:09;;;;;;;10.37;6.60;;;;;;;;;;5073606;28;20454;-78
2023/05/26 09:24:48;;;;;;;7.80;6.83;;;;;;;;;;5073562;28;20467;-78
2023/05/26 09:27:19;;;;;;;11.43;6.30;;;;;;;;;;5073564;28;20875;-78
2023/05/26 09:29:55;;;;;;;8.00;5.47;;;;;;;;;;5073530;28;20479;-78
2023/05/26 09:32:26;;;;;;;8.33;5.87;;;;;;;;;;5074056;28;20534;-78
2023/05/26 09:34:53;;;;;;;8.50;6.20;;;;;;;;;;5073391;28;20568;-78
2023/05/26 09:37:28;;;;;;;9.03;6.27;;;;;;;;;;5073705;28;20444;-78
2023/05/26 09:39:55;;;;;;;13.47;6.20;;;;;;;;;;5074013;28;20485;-78
2023/05/26 09:42:23;;;;;;;9.53;6.40;;;;;;;;;;5073931;28;20934;-78
2023/05/26 09:44:51;;;;;;;7.00;6.30;;;;;;;;;;5073875;28;20448;-78
2023/05/26 09:47:22;;;;;;;10.77;6.37;;;;;;;;;;5073511;28;20470;-78
2023/05/26 09:49:49;;;;;;;5.87;5.17;;;;;;;;;;5072842;28;20475;-78
2023/05/26 09:52:17;;;;;;;7.23;6.17;;;;;;;;;;5072903;28;20552;-78
2023/05/26 09:54:44;;;;;;;8.80;6.37;;;;;;;;;;5072751;28;20491;-78
2023/05/26 09:57:11;;;;;;;7.43;5.63;;;;;;;;;;5072980;28;20467;-78
2023/05/26 09:59:40;;;;;;;9.03;6.47;;;;;;;;;;5072749;28;20475;-78
2023/05/26 10:02:12;;;;;;;8.97;7.40;;;;;;;;;;5074395;28;20812;-79
2023/05/26 10:04:41;;;;;;;6.67;5.97;;;;;;;;;;5074732;28;20874;-78
2023/05/26 10:07:08;;;;;;;6.30;5.63;;;;;;;;;;5073181;28;20952;-78
2023/05/26 10:09:37;;;;;;;7.63;6.23;;;;;;;;;;5072577;28;20468;-78
2023/05/26 10:12:05;;;;;;;6.97;6.37;;;;;;;;;;5072881;28;20447;-78
2023/05/26 10:14:32;;;;;;;10.40;6.77;;;;;;;;;;5076013;28;20567;-78
2023/05/26 10:17:00;;;;;;;9.47;6.90;;;;;;;;;;5076947;28;20447;-78
2023/05/26 10:19:27;;;;;;;7.70;6.27;;;;;;;;;;5076551;28;20472;-78
2023/05/26 10:21:57;;;;;;;8.23;7.00;;;;;;;;;;5076434;28;20460;-78
2023/05/26 10:24:27;;;;;;;9.13;6.83;;;;;;;;;;5076353;28;20448;-78
2023/05/26 10:26:56;;;;;;;6.60;6.00;;;;;;;;;;5076358;28;20448;-78
2023/05/26 10:29:26;;;;;;;6.83;5.93;;;;;;;;;;5076202;28;20486;-78
2023/05/26 10:31:53;;;;;;;7.07;6.37;;;;;;;;;;5075444;28;20921;-78
2023/05/26 10:34:35;;;;;;;7.17;5.60;;;;;;;;;;5075718;28;20489;-78
2023/05/26 10:37:13;;;;;;;7.00;5.47;;;;;;;;;;5075940;28;20933;-78
2023/05/26 10:39:40;;;;;;;8.77;5.40;;;;;;;;;;5076584;28;20987;-78
2023/05/26 10:42:16;;;;;;;10.87;6.03;;;;;;;;;;5076387;28;20489;-78
2023/05/26 10:44:45;;;;;;;8.17;5.47;;;;;;;;;;5075714;28;20435;-78
2023/05/26 10:47:14;;;;;;;5.50;4.80;;;;;;;;;;5076375;28;20898;-78
2023/05/26 10:49:42;;;;;;;10.60;5.70;;;;;;;;;;5076929;28;20471;-78
2023/05/26 10:52:13;;;;;;;7.33;5.23;;;;;;;;;;5076385;28;20452;-78
2023/05/26 10:54:42;;;;;;;6.57;5.47;;;;;;;;;;5076104;28;20488;-79
2023/05/26 10:57:28;;;;;;;7.47;5.90;;;;;;;;;;5075869;28;20462;-78
2023/05/26 10:59:56;;;;;;;7.67;6.20;;;;;;;;;;5075986;28;20475;-78
2023/05/26 11:02:23;;;;;;;6.80;6.07;;;;;;;;;;5075449;28;20525;-78
2023/05/26 11:04:51;;;;;;;7.73;5.97;;;;;;;;;;5075752;28;20911;-78
2023/05/26 11:07:22;;;;;;;7.07;6.10;;;;;;;;;;5076108;28;20812;-78
2023/05/26 11:09:56;;;;;;;7.40;4.80;;;;;;;;;;5076049;28;20494;-78
2023/05/26 11:12:24;;;;;;;8.37;6.40;;;;;;;;;;5076036;28;20982;-78
2023/05/26 11:14:51;;;;;;;7.10;5.60;;;;;;;;;;5074803;28;20484;-78
2023/05/26 11:17:19;;;;;;;7.00;5.43;;;;;;;;;;5076850;28;20458;-78
2023/05/26 11:19:54;;;;;;;8.50;5.43;;;;;;;;;;5075097;28;20842;-78
2023/05/26 11:22:23;;;;;;;6.60;5.90;;;;;;;;;;5075981;28;20459;-78
2023/05/26 11:24:51;;;;;;;10.17;6.57;;;;;;;;;;5074586;28;20451;-78
2023/05/26 11:27:18;;;;;;;9.83;6.40;;;;;;;;;;5075565;28;20459;-78
2023/05/26 11:29:47;;;;;;;6.20;5.60;;;;;;;;;;5075091;28;20511;-78
2023/05/26 11:32:14;;;;;;;6.00;5.40;;;;;;;;;;5075851;28;20447;-78
2023/05/26 11:34:41;;;;;;;7.40;6.27;;;;;;;;;;5075346;28;20484;-78
2023/05/26 11:37:10;;;;;;;9.17;5.70;;;;;;;;;;5075759;28;20447;-78
2023/05/26 11:39:39;;;;;;;6.33;5.60;;;;;;;;;;5074342;28;20479;-78
2023/05/26 11:42:09;;;;;;;7.60;5.23;;;;;;;;;;5075216;28;20517;-78
2023/05/26 11:44:37;;;;;;;10.53;6.10;;;;;;;;;;5074947;28;20466;-78
2023/05/26 11:47:05;;;;;;;9.70;6.80;;;;;;;;;;5074964;28;20440;-77
2023/05/26 11:49:32;;;;;;;8.30;6.10;;;;;;;;;;5074248;28;20992;-77
2023/05/26 11:51:59;;;;;;;9.13;5.27;;;;;;;;;;5075085;28;20447;-77
2023/05/26 11:54:26;;;;;;;11.23;5.60;;;;;;;;;;5074262;28;21000;-77
2023/05/26 11:56:55;;;;;;;7.83;5.50;;;;;;;;;;5074940;28;20479;-77
2023/05/26 11:59:23;;;;;;;8.30;6.00;;;;;;;;;;5074393;28;20467;-77
2023/05/26 12:01:50;;;;;;;10.20;6.33;;;;;;;;;;5074981;28;20455;-77
2023/05/26 12:04:26;;;;;;;9.37;6.70;;;;;;;;;;5075088;28;20444;-77
2023/05/26 12:06:53;;;;;;;9.90;8.30;;;;;;;;;;5074488;28;20442;-77
2023/05/26 12:09:22;;;;;;;11.50;6.80;;;;;;;;;;5074000;28;20475;-78
2023/05/26 12:11:49;;;;;;;11.30;6.30;;;;;;;;;;5074782;28;20459;-77
2023/05/26 12:14:18;;;;;;;10.40;6.60;;;;;;;;;;5074761;28;20498;-77
2023/05/26 12:16:46;;;;;;;9.07;6.67;;;;;;;;;;5073903;28;20455;-77
2023/05/26 12:19:14;;;;;;;7.00;6.30;;;;;;;;;;5072159;28;20487;-77
2023/05/26 12:21:42;;;;;;;6.97;6.07;;;;;;;;;;5073487;28;20540;-77
2023/05/26 12:24:09;;;;;;;8.77;6.37;;;;;;;;;;5066734;28;20451;-77
2023/05/26 12:26:37;;;;;;;8.03;6.07;;;;;;;;;;5067068;28;20458;-76
2023/05/26 12:29:11;;;;;;;7.13;6.50;;;;;;;;;;5066744;28;20566;-77
2023/05/26 12:31:43;;;;;;;6.47;5.73;;;;;;;;;;5065286;28;20452;-77
2023/05/26 12:34:11;;;;;;;8.03;5.87;;;;;;;;;;5058636;28;21817;-77
2023/05/26 12:36:39;;;;;;;7.53;6.43;;;;;;;;;;5058304;28;20804;-76
2023/05/26 12:39:07;;;;;;;8.27;6.30;;;;;;;;;;5059889;28;20468;-77
2023/05/26 12:41:34;;;;;;;10.60;6.50;;;;;;;;;;5054515;28;20468;-77
2023/05/26 12:44:01;;;;;;;7.33;6.60;;;;;;;;;;5061186;28;20447;-77
2023/05/26 12:46:29;;;;;;;7.30;6.60;;;;;;;;;;5059092;28;20878;-77
2023/05/26 12:48:57;;;;;;;9.20;5.90;;;;;;;;;;5055582;28;20473;-77
2023/05/26 12:51:25;;;;;;;9.00;5.63;;;;;;;;;;5052377;28;20453;-77
2023/05/26 12:53:52;;;;;;;9.50;5.80;;;;;;;;;;5053292;28;20822;-77
2023/05/26 12:56:19;;;;;;;6.63;5.10;;;;;;;;;;5053354;28;20460;-77
2023/05/26 12:58:46;;;;;;;12.63;6.23;;;;;;;;;;5053101;28;20487;-76
2023/05/26 13:01:14;;;;;;;9.00;5.43;;;;;;;;;;5059074;28;20976;-77
2023/05/26 13:03:42;;;;;;;6.53;5.83;;;;;;;;;;5058612;28;20460;-77
2023/05/26 13:06:11;;;;;;;5.50;5.00;;;;;;;;;;5061839;28;20463;-77
2023/05/26 13:08:38;;;;;;;6.60;5.90;;;;;;;;;;5054703;28;20529;-77
2023/05/26 13:11:05;;;;;;;14.90;5.43;;;;;;;;;;5057775;28;20836;-77
2023/05/26 13:13:33;;;;;;;9.67;5.27;;;;;;;;;;5068264;28;20632;-76
2023/05/26 13:16:00;;;;;;;5.93;4.93;;;;;;;;;;5052748;28;20528;-76
2023/05/26 13:18:27;;;;;;;13.57;5.60;;;;;;;;;;5064683;28;20993;-76
2023/05/26 13:20:56;;;;;;;10.30;5.30;;;;;;;;;;5065770;28;20460;-77
2023/05/26 13:23:24;;;;;;;6.90;5.40;;;;;;;;;;5073733;28;20968;-77
2023/05/26 13:25:51;;;;;;;5.53;5.00;;;;;;;;;;5073608;28;20472;-77
2023/05/26 13:28:19;;;;;;;6.20;5.40;;;;;;;;;;5073600;28;20466;-77
2023/05/26 13:30:46;;;;;;;8.73;5.50;;;;;;;;;;5073104;28;20950;-77
2023/05/26 13:33:13;;;;;;;6.73;5.67;;;;;;;;;;5072748;28;20458;-77
2023/05/26 13:35:40;;;;;;;11.53;6.00;;;;;;;;;;5073840;28;20488;-77
2023/05/26 13:38:07;;;;;;;7.93;5.83;;;;;;;;;;5073672;28;20961;-77
2023/05/26 13:40:36;;;;;;;9.20;5.60;;;;;;;;;;5073092;28;20455;-77
2023/05/26 13:43:03;;;;;;;7.33;5.10;;;;;;;;;;5074735;28;20947;-77
2023/05/26 13:45:30;;;;;;;5.90;5.33;;;;;;;;;;5075455;28;20447;-77
2023/05/26 13:47:57;;;;;;;9.00;6.33;;;;;;;;;;5076399;28;20486;-77
2023/05/26 13:50:24;;;;;;;6.90;5.20;;;;;;;;;;5078514;28;20838;-77
2023/05/26 13:52:52;;;;;;;6.93;4.80;;;;;;;;;;5078378;28;20456;-77
2023/05/26 13:55:19;;;;;;;6.60;5.93;;;;;;;;;;5077239;28;20471;-77
2023/05/26 13:57:47;;;;;;;6.63;5.73;;;;;;;;;;5078207;28;20926;-77
2023/05/26 14:00:15;;;;;;;9.70;6.43;;;;;;;;;;5079188;28;20472;-77
2023/05/26 14:02:42;;;;;;;7.77;5.87;;;;;;;;;;5078962;28;20829;-77
2023/05/26 14:05:10;;;;;;;8.23;5.40;;;;;;;;;;5078800;28;20501;-77
2023/05/26 14:07:38;;;;;;;9.40;5.70;;;;;;;;;;5077309;28;20459;-77
2023/05/26 14:10:05;;;;;;;7.33;4.90;;;;;;;;;;5077494;28;20475;-76
2023/05/26 14:12:33;;;;;;;8.43;5.47;;;;;;;;;;5077375;28;20455;-77
2023/05/26 14:15:01;;;;;;;7.23;5.00;;;;;;;;;;5078415;28;20540;-77
2023/05/26 14:17:28;;;;;;;6.37;5.47;;;;;;;;;;5078301;28;20464;-77
2023/05/26 14:19:55;;;;;;;7.47;5.10;;;;;;;;;;5078177;28;20499;-77
2023/05/26 14:22:22;;;;;;;7.53;5.97;;;;;;;;;;5078133;28;20462;-77
2023/05/26 14:24:50;;;;;;;6.10;5.20;;;;;;;;;;5078235;28;20475;-77
2023/05/26 14:27:18;;;;;;;5.97;5.07;;;;;;;;;;5077948;28;20440;-77
2023/05/26 14:29:45;;;;;;;7.00;5.03;;;;;;;;;;5078015;28;20490;-77
2023/05/26 14:32:13;;;;;;;8.00;5.30;;;;;;;;;;5078397;28;20438;-77
2023/05/26 14:34:40;;;;;;;6.03;4.70;;;;;;;;;;5078051;28;20476;-77
2023/05/26 14:37:07;;;;;;;6.90;5.30;;;;;;;;;;5077949;28;20670;-77
2023/05/26 14:39:34;;;;;;;8.83;5.73;;;;;;;;;;5077854;28;20478;-77
2023/05/26 14:42:02;;;;;;;6.60;5.37;;;;;;;;;;5078160;28;20480;-77